Time;durP1;ratioP1;P1;durP2;ratioP2;P2;SDS_P1;SDS_P2;PMS_P1;PMS_P2;Temp;Humidity;BMP_temperature;BMP_pressure;BME280_temperature;BME280_humidity;BME280_pressure;Samples;Min_cycle;Max_cycle;Signal;HPM_P1;HPM_P2
2022/04/26 03:37:51;;;;;;;12.87;12.47;;;20.30;60.00;;;;;;5072576;28;20439;-51
2022/04/26 03:40:18;;;;;;;12.50;12.10;;;20.30;60.00;;;;;;5072960;28;20443;-49
2022/04/26 03:42:45;;;;;;;12.70;12.20;;;20.30;60.10;;;;;;5072786;28;20821;-50
2022/04/26 03:45:11;;;;;;;13.00;12.50;;;20.30;60.00;;;;;;5072452;28;20984;-50
2022/04/26 03:47:38;;;;;;;12.50;12.10;;;20.30;60.10;;;;;;5072261;28;20443;-51
2022/04/26 03:50:07;;;;;;;11.60;11.20;;;20.20;60.10;;;;;;5072675;28;20446;-51
2022/04/26 03:52:33;;;;;;;12.63;12.23;;;20.20;60.00;;;;;;5072724;28;20801;-51
2022/04/26 03:55:02;;;;;;;12.20;11.80;;;20.20;60.10;;;;;;5072547;28;20484;-50
2022/04/26 03:57:29;;;;;;;12.20;11.80;;;20.20;60.00;;;;;;5072074;28;20444;-50
2022/04/26 03:59:56;;;;;;;13.43;12.93;;;20.30;60.00;;;;;;5072357;28;20462;-49
2022/04/26 04:02:23;;;;;;;13.40;12.90;;;20.20;59.90;;;;;;5072494;28;20526;-50
2022/04/26 04:04:50;;;;;;;14.00;13.40;;;20.20;59.90;;;;;;5072205;28;20463;-50
2022/04/26 04:07:18;;;;;;;13.73;13.23;;;20.20;59.90;;;;;;5071923;28;20447;-50
2022/04/26 04:09:45;;;;;;;13.13;12.63;;;20.20;60.00;;;;;;5072270;28;20446;-51
2022/04/26 04:12:12;;;;;;;13.17;12.77;;;20.20;59.90;;;;;;5071956;28;20509;-49
2022/04/26 04:14:39;;;;;;;13.30;12.80;;;20.20;60.00;;;;;;5072046;28;20483;-50
2022/04/26 04:17:06;;;;;;;14.20;13.43;;;20.20;60.00;;;;;;5071785;28;20451;-50
2022/04/26 04:19:32;;;;;;;15.90;15.30;;;20.20;60.00;;;;;;5072015;28;20447;-50
2022/04/26 04:21:59;;;;;;;14.73;14.23;;;20.20;60.10;;;;;;5072096;28;20443;-50
2022/04/26 04:24:27;;;;;;;12.73;12.30;;;20.20;60.10;;;;;;5072087;28;20836;-51
2022/04/26 04:26:55;;;;;;;12.90;12.40;;;20.20;60.20;;;;;;5071517;28;20967;-51
2022/04/26 04:29:21;;;;;;;13.50;13.00;;;20.30;61.40;;;;;;5071982;28;20850;-51
2022/04/26 04:31:49;;;;;;;12.77;12.27;;;20.30;61.00;;;;;;5071926;28;20451;-51
2022/04/26 04:34:16;;;;;;;17.30;14.43;;;20.30;61.10;;;;;;5071428;28;20487;-50
2022/04/26 04:36:43;;;;;;;19.70;17.60;;;20.40;69.50;;;;;;5071138;28;20832;-50
2022/04/26 04:39:10;;;;;;;20.73;17.60;;;20.40;86.60;;;;;;5071397;28;20963;-50
2022/04/26 04:41:38;;;;;;;23.33;17.53;;;20.50;99.90;;;;;;5071800;28;20444;-50
2022/04/26 04:44:06;;;;;;;24.87;17.33;;;20.50;99.90;;;;;;5071286;28;20446;-53
2022/04/26 04:46:32;;;;;;;18.37;16.80;;;20.50;99.90;;;;;;5050749;28;20440;-50
2022/04/26 04:48:59;;;;;;;16.80;15.10;;;20.40;99.90;;;;;;5051670;28;20451;-51
2022/04/26 04:51:26;;;;;;;18.93;17.27;;;20.40;99.90;;;;;;5051831;28;20822;-48
2022/04/26 04:53:53;;;;;;;17.40;16.07;;;20.40;99.90;;;;;;5052268;28;20494;-49
2022/04/26 04:56:19;;;;;;;17.53;15.90;;;20.30;99.10;;;;;;5071585;28;20450;-49
2022/04/26 04:58:47;;;;;;;16.37;15.30;;;20.40;98.50;;;;;;5071562;28;20454;-48
2022/04/26 05:01:14;;;;;;;15.90;14.50;;;20.40;97.70;;;;;;5071587;28;20447;-49
2022/04/26 05:03:41;;;;;;;16.47;15.03;;;20.30;97.10;;;;;;5071500;28;20458;-49
2022/04/26 05:06:08;;;;;;;17.40;16.10;;;20.30;96.50;;;;;;5071506;28;20467;-49
2022/04/26 05:08:35;;;;;;;15.67;14.53;;;20.30;95.70;;;;;;5071379;28;20782;-49
2022/04/26 05:11:02;;;;;;;17.53;16.07;;;20.30;95.20;;;;;;5071519;28;20439;-49
2022/04/26 05:13:28;;;;;;;15.33;14.37;;;20.30;94.70;;;;;;5071310;28;20486;-48
2022/04/26 05:15:56;;;;;;;16.63;15.00;;;20.30;94.30;;;;;;5071361;28;21002;-49
2022/04/26 05:18:23;;;;;;;16.10;15.10;;;20.30;93.70;;;;;;5071255;28;20443;-50
2022/04/26 05:20:50;;;;;;;17.10;16.00;;;20.30;93.20;;;;;;5071524;28;20439;-49
2022/04/26 05:26:01;;;;;;;14.37;13.30;;;20.30;92.10;;;;;;5071321;28;20438;-50
2022/04/26 05:28:28;;;;;;;16.77;15.77;;;20.30;91.60;;;;;;5071147;28;20443;-49
2022/04/26 05:30:56;;;;;;;17.10;15.70;;;20.20;91.20;;;;;;5071292;28;20450;-49
2022/04/26 05:33:25;;;;;;;16.63;15.63;;;20.20;90.80;;;;;;5071174;28;20443;-48
2022/04/26 05:35:52;;;;;;;16.73;15.73;;;20.20;90.30;;;;;;5071310;28;20479;-48
2022/04/26 05:38:19;;;;;;;17.40;16.40;;;20.30;90.00;;;;;;5071163;28;20451;-48
2022/04/26 05:40:46;;;;;;;15.87;14.80;;;20.20;89.30;;;;;;5071193;28;20458;-50
2022/04/26 05:43:13;;;;;;;15.53;14.33;;;20.20;88.60;;;;;;5071111;28;20526;-49
2022/04/26 05:45:39;;;;;;;14.50;13.80;;;20.20;88.10;;;;;;5071115;28;20895;-49
2022/04/26 05:48:08;;;;;;;15.53;14.53;;;20.20;87.50;;;;;;5070788;28;20447;-50
2022/04/26 05:50:35;;;;;;;14.90;14.10;;;20.20;87.00;;;;;;5071213;28;20868;-49
2022/04/26 05:53:01;;;;;;;15.27;14.27;;;20.20;86.20;;;;;;5071086;28;20449;-49
2022/04/26 05:55:28;;;;;;;13.43;12.73;;;20.20;85.50;;;;;;5070956;28;20487;-49
2022/04/26 05:57:55;;;;;;;14.20;13.60;;;20.20;85.30;;;;;;5072259;28;20449;-48
2022/04/26 06:00:22;;;;;;;16.00;15.13;;;20.20;84.50;;;;;;5074782;28;20473;-48
2022/04/26 06:02:49;;;;;;;14.50;13.70;;;20.20;84.00;;;;;;5074654;28;20443;-49
2022/04/26 06:05:17;;;;;;;14.03;13.33;;;20.20;83.50;;;;;;5074524;28;20467;-49
2022/04/26 06:07:44;;;;;;;14.50;13.87;;;20.20;83.30;;;;;;5074409;28;20997;-49
2022/04/26 06:10:11;;;;;;;14.57;13.83;;;20.20;82.60;;;;;;5074476;28;20458;-49
2022/04/26 06:12:40;;;;;;;14.73;13.73;;;20.20;82.30;;;;;;5074495;28;20442;-49
2022/04/26 06:15:07;;;;;;;15.50;14.70;;;20.20;82.00;;;;;;5074224;28;20548;-49
2022/04/26 06:17:34;;;;;;;16.13;15.07;;;20.20;81.80;;;;;;5074348;28;20449;-49
2022/04/26 06:20:01;;;;;;;14.93;14.27;;;20.20;81.40;;;;;;5074413;28;20471;-51
2022/04/26 06:22:29;;;;;;;14.30;13.60;;;20.20;80.80;;;;;;5074258;28;20924;-48
2022/04/26 06:24:55;;;;;;;13.80;13.10;;;20.20;80.40;;;;;;5074401;28;20467;-49
2022/04/26 06:27:22;;;;;;;14.27;13.67;;;20.20;80.00;;;;;;5074133;28;20450;-49
2022/04/26 06:29:49;;;;;;;14.77;14.17;;;20.20;79.70;;;;;;5074315;28;20504;-48
2022/04/26 06:32:16;;;;;;;14.70;14.00;;;20.20;79.30;;;;;;5074309;28;20448;-49
2022/04/26 06:34:42;;;;;;;14.40;13.77;;;20.20;79.00;;;;;;5073976;28;20506;-49
2022/04/26 06:37:09;;;;;;;13.83;13.33;;;20.20;78.70;;;;;;5073903;28;20450;-48
2022/04/26 06:39:37;;;;;;;14.23;13.50;;;20.20;78.60;;;;;;5074079;28;20451;-51
2022/04/26 06:42:04;;;;;;;13.47;12.97;;;20.20;78.40;;;;;;5073971;28;20454;-49
2022/04/26 06:44:31;;;;;;;13.83;13.33;;;20.20;78.20;;;;;;5074413;28;20471;-50
2022/04/26 06:46:58;;;;;;;14.13;13.33;;;20.20;78.00;;;;;;5073849;28;20470;-49
2022/04/26 06:49:25;;;;;;;13.60;13.00;;;20.20;77.70;;;;;;5073962;28;20443;-49
2022/04/26 06:51:51;;;;;;;13.73;13.23;;;20.20;77.60;;;;;;5073767;28;20446;-50
2022/04/26 06:54:18;;;;;;;14.40;13.80;;;20.20;77.30;;;;;;5073686;28;20487;-50
2022/04/26 06:56:46;;;;;;;14.43;13.90;;;20.20;77.30;;;;;;5073580;28;20444;-49
2022/04/26 06:59:13;;;;;;;14.27;13.60;;;20.20;76.90;;;;;;5073667;28;20455;-49
2022/04/26 07:01:40;;;;;;;14.43;13.60;;;20.20;76.60;;;;;;5073709;28;20787;-51
2022/04/26 07:04:07;;;;;;;14.40;13.60;;;20.20;76.40;;;;;;5073459;28;20444;-49
2022/04/26 07:06:34;;;;;;;13.37;12.60;;;20.20;76.00;;;;;;5073471;28;20517;-49
2022/04/26 07:09:03;;;;;;;14.20;13.50;;;20.20;75.90;;;;;;5072582;28;20446;-50
2022/04/26 07:11:30;;;;;;;13.03;12.40;;;20.20;75.80;;;;;;5073456;28;20455;-49
2022/04/26 07:13:58;;;;;;;14.00;13.50;;;20.20;75.70;;;;;;5073309;28;20447;-48
2022/04/26 07:16:25;;;;;;;13.57;12.90;;;20.20;75.40;;;;;;5073282;28;20455;-48
2022/04/26 07:18:52;;;;;;;14.20;13.50;;;20.20;75.20;;;;;;5073439;28;20450;-48
2022/04/26 07:21:19;;;;;;;14.10;13.60;;;20.20;75.70;;;;;;5073317;28;20450;-49
2022/04/26 07:23:45;;;;;;;13.87;13.37;;;20.20;74.80;;;;;;5073367;28;20469;-49
2022/04/26 07:26:12;;;;;;;13.80;13.30;;;20.20;75.40;;;;;;5072986;28;20471;-50
2022/04/26 07:28:39;;;;;;;14.10;13.50;;;20.20;74.40;;;;;;5072891;28;20816;-48
2022/04/26 07:31:08;;;;;;;13.00;12.40;;;20.20;74.20;;;;;;5073130;28;20446;-49
2022/04/26 07:36:22;;;;;;;13.20;12.70;;;20.20;73.90;;;;;;5073010;28;20410;-49
2022/04/26 07:38:49;;;;;;;14.03;13.33;;;20.20;73.80;;;;;;5072840;28;20451;-49
2022/04/26 07:41:16;;;;;;;12.93;12.43;;;20.20;73.50;;;;;;5072780;28;20493;-48
2022/04/26 07:43:44;;;;;;;13.50;12.90;;;20.20;73.50;;;;;;5072794;28;20444;-48
2022/04/26 07:46:13;;;;;;;13.00;12.50;;;20.20;73.40;;;;;;5072618;28;20503;-49
2022/04/26 07:48:43;;;;;;;13.87;13.27;;;20.20;73.20;;;;;;5072506;28;20440;-51
2022/04/26 07:51:10;;;;;;;13.47;12.97;;;20.20;73.10;;;;;;5072779;28;20867;-49
2022/04/26 07:53:37;;;;;;;13.73;13.13;;;20.10;72.80;;;;;;5072621;28;20432;-48
2022/04/26 07:56:04;;;;;;;13.40;12.90;;;20.20;72.90;;;;;;5072459;28;20519;-49
2022/04/26 07:58:30;;;;;;;13.47;12.87;;;20.20;72.60;;;;;;5072279;28;20454;-51
2022/04/26 08:00:57;;;;;;;14.07;13.47;;;20.10;72.40;;;;;;5072495;28;20443;-50
2022/04/26 08:03:25;;;;;;;14.73;13.87;;;20.10;72.40;;;;;;5072378;28;20446;-50
2022/04/26 08:05:53;;;;;;;15.00;14.30;;;20.10;72.00;;;;;;5072227;28;20471;-54
2022/04/26 08:08:20;;;;;;;13.33;12.73;;;20.20;72.10;;;;;;5072107;28;20458;-52
2022/04/26 08:10:47;;;;;;;13.73;13.23;;;20.10;71.90;;;;;;5072056;28;20458;-50
2022/04/26 08:13:14;;;;;;;14.40;13.50;;;20.20;71.90;;;;;;5072168;28;20451;-49
2022/04/26 08:15:40;;;;;;;14.87;14.17;;;20.20;71.60;;;;;;5072085;28;20510;-50
2022/04/26 08:18:07;;;;;;;14.57;13.97;;;20.20;71.50;;;;;;5072052;28;20825;-50
2022/04/26 08:20:36;;;;;;;13.07;12.57;;;20.10;71.10;;;;;;5071992;28;20456;-50
2022/04/26 08:23:03;;;;;;;13.70;12.93;;;20.20;71.30;;;;;;5072126;28;20455;-49
2022/04/26 08:28:14;;;;;;;13.57;12.97;;;20.10;70.90;;;;;;5072007;28;20838;-49
2022/04/26 08:30:40;;;;;;;13.33;12.83;;;20.10;70.70;;;;;;5072036;28;20832;-49
2022/04/26 08:33:07;;;;;;;13.57;12.90;;;20.10;70.70;;;;;;5071880;28;20447;-49
2022/04/26 08:35:35;;;;;;;12.70;12.20;;;20.10;70.40;;;;;;5071857;28;20494;-49
2022/04/26 08:38:02;;;;;;;15.03;14.43;;;20.10;70.50;;;;;;5071809;28;20447;-49
2022/04/26 08:40:29;;;;;;;13.20;12.70;;;20.10;70.20;;;;;;5071857;28;20455;-51
2022/04/26 08:42:55;;;;;;;13.97;13.47;;;20.20;70.10;;;;;;5071925;28;20450;-49
2022/04/26 08:45:22;;;;;;;13.40;12.90;;;20.20;69.90;;;;;;5071854;28;20467;-51
2022/04/26 08:53:21;;;;;;;14.17;13.57;;;20.10;69.30;;;;;;5071798;28;20446;-49
2022/04/26 08:55:50;;;;;;;13.63;13.10;;;20.10;69.40;;;;;;5071476;28;20498;-48
2022/04/26 08:58:18;;;;;;;13.90;13.07;;;20.10;69.50;;;;;;5071615;28;20459;-49
2022/04/26 09:01:08;;;;;;;14.37;13.87;;;20.10;69.50;;;;;;5071658;28;20455;-49
2022/04/26 09:03:35;;;;;;;14.07;13.57;;;20.10;69.20;;;;;;5071755;28;20621;-48
2022/04/26 09:06:09;;;;;;;14.53;13.83;;;20.10;69.10;;;;;;5071623;28;20459;-49
2022/04/26 09:08:37;;;;;;;14.10;13.50;;;20.10;68.90;;;;;;5071394;28;20439;-49
2022/04/26 09:11:04;;;;;;;14.73;14.03;;;20.10;69.00;;;;;;5071556;28;20444;-48
2022/04/26 09:13:40;;;;;;;14.43;13.73;;;20.10;68.80;;;;;;5071415;28;20940;-49
2022/04/26 09:16:17;;;;;;;14.10;13.60;;;20.10;68.70;;;;;;5071421;28;20490;-49
2022/04/26 09:18:54;;;;;;;14.70;14.00;;;20.10;68.60;;;;;;5071896;28;20863;-50
2022/04/26 09:21:27;;;;;;;13.70;13.03;;;20.10;68.60;;;;;;5071597;28;20454;-50
2022/04/26 09:23:56;;;;;;;15.23;14.53;;;20.10;68.40;;;;;;5071273;28;20451;-50
2022/04/26 09:26:23;;;;;;;13.97;13.40;;;20.10;68.40;;;;;;5071321;28;20448;-49
2022/04/26 09:28:51;;;;;;;14.33;13.73;;;20.10;68.50;;;;;;5071268;28;20971;-50
2022/04/26 09:31:20;;;;;;;13.20;12.70;;;20.10;68.20;;;;;;5071295;28;21020;-49
2022/04/26 09:33:51;;;;;;;14.60;14.00;;;20.20;68.20;;;;;;5074427;28;20444;-49
2022/04/26 09:36:19;;;;;;;13.90;13.40;;;20.10;68.00;;;;;;5075220;28;20475;-49
2022/04/26 09:38:52;;;;;;;13.43;12.93;;;20.20;68.10;;;;;;5075074;28;20443;-49
2022/04/26 09:41:20;;;;;;;15.23;14.53;;;20.20;67.90;;;;;;5075205;28;20489;-50
2022/04/26 09:43:56;;;;;;;13.50;13.00;;;20.20;67.80;;;;;;5075098;28;20454;-53
2022/04/26 09:46:23;;;;;;;13.70;13.20;;;20.20;67.70;;;;;;5075106;28;20431;-49
2022/04/26 09:48:52;;;;;;;15.60;14.93;;;20.20;67.60;;;;;;5075061;28;20466;-49
2022/04/26 09:51:19;;;;;;;14.77;14.00;;;20.20;68.40;;;;;;5075030;28;20802;-49
2022/04/26 09:53:46;;;;;;;14.83;14.23;;;20.20;67.60;;;;;;5074891;28;20450;-50
2022/04/26 09:56:15;;;;;;;14.30;13.70;;;20.20;67.60;;;;;;5074698;28;20992;-48
2022/04/26 09:58:44;;;;;;;14.67;14.07;;;20.20;67.50;;;;;;5074700;28;20521;-48
2022/04/26 10:01:11;;;;;;;14.20;13.60;;;20.20;67.30;;;;;;5074889;28;20439;-49
2022/04/26 10:03:43;;;;;;;14.87;14.27;;;20.20;67.10;;;;;;5074679;28;20454;-48
2022/04/26 10:06:10;;;;;;;13.90;13.40;;;20.20;67.10;;;;;;5074733;28;20464;-48
2022/04/26 10:08:38;;;;;;;14.70;14.10;;;20.20;67.10;;;;;;5074301;28;20524;-49
2022/04/26 10:11:05;;;;;;;14.10;13.60;;;20.20;66.90;;;;;;5074696;28;20443;-49
2022/04/26 10:13:39;;;;;;;13.80;13.00;;;20.20;67.00;;;;;;5074623;28;20975;-48
2022/04/26 10:16:08;;;;;;;13.67;13.17;;;20.20;67.00;;;;;;5074437;28;20552;-48
2022/04/26 10:18:39;;;;;;;15.40;14.80;;;20.20;66.70;;;;;;5074094;28;20523;-49
2022/04/26 10:21:07;;;;;;;14.77;14.17;;;20.20;66.80;;;;;;5074435;28;20526;-50
2022/04/26 10:24:11;;;;;;;14.93;14.23;;;20.20;66.60;;;;;;5074391;28;20446;-49
2022/04/26 10:26:38;;;;;;;13.43;12.87;;;20.20;66.50;;;;;;5074351;28;20444;-48
2022/04/26 10:29:21;;;;;;;14.67;14.13;;;20.20;66.30;;;;;;5074264;28;20815;-49
2022/04/26 10:31:49;;;;;;;14.77;14.07;;;20.20;66.30;;;;;;5074225;28;20450;-48
2022/04/26 10:34:30;;;;;;;15.00;14.40;;;20.20;66.40;;;;;;5073984;28;20897;-47
2022/04/26 10:37:00;;;;;;;14.40;13.90;;;20.20;66.10;;;;;;5073850;28;20483;-48
2022/04/26 10:39:32;;;;;;;14.57;13.87;;;20.20;66.30;;;;;;5073986;28;20447;-48
2022/04/26 10:42:00;;;;;;;15.13;14.53;;;20.20;65.80;;;;;;5074109;28;20530;-48
2022/04/26 10:44:33;;;;;;;14.70;14.17;;;20.20;65.70;;;;;;5072387;28;20479;-48
2022/04/26 10:47:22;;;;;;;14.37;13.77;;;20.20;65.80;;;;;;5073984;28;20439;-48
2022/04/26 10:49:51;;;;;;;13.97;13.47;;;20.20;65.80;;;;;;5073875;28;20501;-48
2022/04/26 10:52:47;;;;;;;15.70;15.00;;;20.30;65.70;;;;;;5073705;28;20455;-50
2022/04/26 10:55:28;;;;;;;15.03;14.43;;;20.30;65.70;;;;;;5073571;28;20523;-47
2022/04/26 10:57:57;;;;;;;14.60;14.00;;;20.30;65.50;;;;;;5073610;28;20538;-48
2022/04/26 11:00:37;;;;;;;15.00;14.40;;;20.30;65.70;;;;;;5073629;28;20482;-49
2022/04/26 11:03:07;;;;;;;14.27;13.70;;;20.30;65.40;;;;;;5073841;28;20550;-48
2022/04/26 11:05:34;;;;;;;15.10;14.50;;;20.30;65.60;;;;;;5073309;28;20525;-48
2022/04/26 11:08:03;;;;;;;15.50;14.90;;;20.30;65.50;;;;;;5073434;28;20443;-48
2022/04/26 11:11:00;;;;;;;14.13;13.63;;;20.30;65.10;;;;;;5073371;28;20452;-48
2022/04/26 11:13:22;;;;;;;13.70;13.20;;;20.30;65.10;;;;;;5073431;28;20475;-48
2022/04/26 11:16:12;;;;;;;14.17;13.67;;;20.30;65.30;;;;;;5073294;28;20479;-48
2022/04/26 11:18:42;;;;;;;13.10;12.67;;;20.30;65.70;;;;;;5073286;28;21016;-48
2022/04/26 11:21:10;;;;;;;13.53;13.03;;;20.30;64.80;;;;;;5073467;28;20843;-48
2022/04/26 11:29:21;;;;;;;13.70;13.20;;;20.30;64.60;;;;;;5073198;28;20924;-48
2022/04/26 11:31:49;;;;;;;13.70;13.27;;;20.30;64.40;;;;;;5073137;28;20792;-48
2022/04/26 11:34:16;;;;;;;14.00;13.50;;;20.30;64.50;;;;;;5072997;28;20467;-48
2022/04/26 11:36:43;;;;;;;14.47;13.87;;;20.30;64.40;;;;;;5072806;28;20476;-48
2022/04/26 11:39:10;;;;;;;14.37;13.87;;;20.30;64.40;;;;;;5072782;28;20514;-49
2022/04/26 11:41:37;;;;;;;13.73;13.23;;;20.40;64.50;;;;;;5072870;28;20798;-48
2022/04/26 11:44:07;;;;;;;13.30;12.80;;;20.40;64.00;;;;;;5072583;28;20513;-48
2022/04/26 11:46:33;;;;;;;13.73;13.20;;;20.40;64.00;;;;;;5072804;28;20470;-48
2022/04/26 11:49:04;;;;;;;14.13;13.63;;;20.40;64.00;;;;;;5072671;28;20443;-48
2022/04/26 11:51:31;;;;;;;13.80;13.30;;;20.50;64.10;;;;;;5072733;28;20496;-49
2022/04/26 11:53:58;;;;;;;13.17;12.60;;;20.50;63.70;;;;;;5072547;28;20455;-48
2022/04/26 11:56:26;;;;;;;12.47;11.97;;;20.50;63.70;;;;;;5071910;28;20479;-48
2022/04/26 11:58:53;;;;;;;12.57;12.10;;;20.50;63.40;;;;;;5072407;28;20451;-50
2022/04/26 12:01:21;;;;;;;13.20;12.70;;;20.50;63.20;;;;;;5072543;28;20448;-48
2022/04/26 12:03:49;;;;;;;13.00;12.60;;;20.50;63.10;;;;;;5072353;28;20801;-49
2022/04/26 12:06:19;;;;;;;13.80;13.30;;;20.50;63.10;;;;;;5072305;28;20874;-51
2022/04/26 12:08:48;;;;;;;13.37;12.87;;;20.50;63.10;;;;;;5072250;28;20452;-48
2022/04/26 12:11:16;;;;;;;13.83;13.33;;;20.50;63.00;;;;;;5072266;28;20440;-49
2022/04/26 12:13:43;;;;;;;15.20;14.50;;;20.50;62.90;;;;;;5072282;28;20999;-49
2022/04/26 12:16:17;;;;;;;14.07;13.47;;;20.50;62.70;;;;;;5072121;28;20487;-51
2022/04/26 12:18:52;;;;;;;14.70;14.20;;;20.50;62.70;;;;;;5071970;28;20786;-51
2022/04/26 12:21:20;;;;;;;13.53;13.03;;;20.50;62.70;;;;;;5072017;28;20439;-48
2022/04/26 12:23:48;;;;;;;14.47;13.87;;;20.60;62.70;;;;;;5072166;28;20470;-50
2022/04/26 12:26:15;;;;;;;13.70;13.30;;;20.60;62.50;;;;;;5072086;28;20443;-49
2022/04/26 12:28:48;;;;;;;14.23;13.73;;;20.60;63.00;;;;;;5071947;28;20777;-49
2022/04/26 12:31:26;;;;;;;14.57;14.07;;;20.70;62.60;;;;;;5072037;28;20875;-48
2022/04/26 12:34:12;;;;;;;14.07;13.57;;;20.70;62.20;;;;;;5071876;28;20439;-49
2022/04/26 12:36:54;;;;;;;15.20;14.60;;;20.70;62.00;;;;;;5070678;28;20477;-48
2022/04/26 12:39:21;;;;;;;14.03;13.53;;;20.70;62.10;;;;;;5071759;28;20510;-48
2022/04/26 12:41:49;;;;;;;13.90;13.40;;;20.70;62.30;;;;;;5071713;28;20956;-48
2022/04/26 12:44:16;;;;;;;13.50;13.10;;;20.70;61.70;;;;;;5072392;28;20824;-54
2022/04/26 12:46:47;;;;;;;14.07;13.57;;;20.80;61.90;;;;;;5075715;28;20939;-52
2022/04/26 12:51:59;;;;;;;12.63;12.23;;;21.00;60.40;;;;;;5078411;28;20415;-53
2022/04/26 12:54:26;;;;;;;13.53;13.13;;;21.10;59.60;;;;;;5077894;28;20993;-53
2022/04/26 12:57:00;;;;;;;13.20;12.70;;;21.20;59.40;;;;;;5075495;28;20837;-49
2022/04/26 12:59:35;;;;;;;13.60;13.10;;;21.20;59.20;;;;;;5074904;28;20500;-51
2022/04/26 13:02:02;;;;;;;13.00;12.60;;;21.10;59.00;;;;;;5075575;28;20443;-54
2022/04/26 13:04:29;;;;;;;14.10;13.60;;;21.10;59.00;;;;;;5074903;28;20464;-51
2022/04/26 13:06:55;;;;;;;14.00;13.50;;;21.10;59.10;;;;;;5074031;28;20518;-51
2022/04/26 13:09:23;;;;;;;12.80;12.40;;;21.00;59.60;;;;;;5075075;28;20450;-53
2022/04/26 13:11:53;;;;;;;13.37;12.87;;;21.00;59.90;;;;;;5075016;28;20447;-50
2022/04/26 13:14:20;;;;;;;13.87;13.37;;;20.90;59.90;;;;;;5074837;28;20506;-52
2022/04/26 13:16:46;;;;;;;13.30;12.80;;;20.90;60.60;;;;;;5074262;28;20502;-50
2022/04/26 13:19:13;;;;;;;13.07;12.60;;;20.80;60.40;;;;;;5074387;28;20451;-50
2022/04/26 13:21:40;;;;;;;14.30;13.60;;;20.80;61.10;;;;;;5074959;28;20448;-52
2022/04/26 13:24:07;;;;;;;13.70;13.20;;;20.80;60.50;;;;;;5076240;28;20447;-52
2022/04/26 13:26:35;;;;;;;13.60;13.13;;;20.80;60.30;;;;;;5075800;28;20466;-50
2022/04/26 13:29:03;;;;;;;13.70;13.20;;;20.70;60.40;;;;;;5076345;28;20462;-54
2022/04/26 13:31:31;;;;;;;13.50;13.10;;;20.70;60.30;;;;;;5076621;28;20451;-53
2022/04/26 13:33:58;;;;;;;13.83;13.33;;;20.70;60.50;;;;;;5076631;28;20458;-51
2022/04/26 13:36:27;;;;;;;14.70;13.90;;;20.70;60.20;;;;;;5075064;28;20483;-50
2022/04/26 13:38:55;;;;;;;12.90;12.50;;;20.70;60.70;;;;;;5075585;28;21014;-52
2022/04/26 13:41:22;;;;;;;12.80;12.40;;;20.70;60.70;;;;;;5075183;28;20937;-50
2022/04/26 13:43:51;;;;;;;12.37;11.97;;;20.70;60.70;;;;;;5075578;28;20439;-51
2022/04/26 13:46:17;;;;;;;13.40;12.90;;;20.70;61.50;;;;;;5075422;28;20450;-51
2022/04/26 13:48:44;;;;;;;13.83;13.33;;;20.70;60.70;;;;;;5074789;28;20448;-49
2022/04/26 13:51:11;;;;;;;13.30;12.90;;;20.70;60.60;;;;;;5075489;28;20445;-51
2022/04/26 13:53:37;;;;;;;12.93;12.47;;;20.70;60.30;;;;;;5071558;28;20451;-55
2022/04/26 13:56:06;;;;;;;12.50;12.10;;;20.70;60.60;;;;;;5070745;28;20487;-52
2022/04/26 13:58:33;;;;;;;15.07;14.47;;;20.70;61.10;;;;;;5072326;28;20486;-51
2022/04/26 14:01:01;;;;;;;14.60;14.10;;;20.80;62.40;;;;;;5071258;28;20448;-50
2022/04/26 14:03:28;;;;;;;14.23;13.63;;;21.00;62.60;;;;;;5072142;28;20474;-49
2022/04/26 14:05:55;;;;;;;14.20;13.70;;;21.10;62.10;;;;;;5072998;28;20499;-50
2022/04/26 14:08:22;;;;;;;14.30;13.80;;;21.10;62.00;;;;;;5072248;28;20936;-51
2022/04/26 14:10:48;;;;;;;14.70;14.07;;;21.20;62.10;;;;;;5072247;28;20470;-54
2022/04/26 14:13:15;;;;;;;14.93;14.30;;;21.30;61.50;;;;;;5072045;28;20440;-49
2022/04/26 14:23:52;;;;;;;14.63;14.13;;;21.60;60.90;;;;;;5076443;28;20951;-52
2022/04/26 14:26:20;;;;;;;14.13;13.63;;;21.60;60.70;;;;;;5075749;28;20452;-55
2022/04/26 14:28:47;;;;;;;15.67;15.07;;;21.60;60.50;;;;;;5074543;28;20462;-50
2022/04/26 14:31:13;;;;;;;14.80;14.27;;;21.60;60.40;;;;;;5074798;28;20443;-48
2022/04/26 14:33:41;;;;;;;14.53;13.93;;;21.60;60.50;;;;;;5074489;28;20459;-49
2022/04/26 14:36:08;;;;;;;14.70;14.10;;;21.70;60.70;;;;;;5074471;28;20478;-49
2022/04/26 14:38:35;;;;;;;14.93;14.33;;;21.70;60.40;;;;;;5074450;28;20444;-49
2022/04/26 14:41:02;;;;;;;14.90;14.37;;;21.70;60.30;;;;;;5074526;28;20447;-50
2022/04/26 14:43:29;;;;;;;14.30;13.80;;;21.80;60.50;;;;;;5074495;28;20451;-48
2022/04/26 14:45:55;;;;;;;15.57;14.87;;;21.80;60.40;;;;;;5074837;28;20518;-58
2022/04/26 14:48:23;;;;;;;14.57;13.97;;;21.80;60.30;;;;;;5079268;28;20537;-48
2022/04/26 14:50:51;;;;;;;14.63;14.13;;;21.80;60.20;;;;;;5078871;28;20519;-47
2022/04/26 14:53:18;;;;;;;14.37;13.77;;;21.90;60.00;;;;;;5078131;28;20444;-47
2022/04/26 14:55:45;;;;;;;14.23;13.60;;;21.80;59.90;;;;;;5078897;28;20455;-50
2022/04/26 14:58:14;;;;;;;15.03;14.43;;;21.90;60.00;;;;;;5079195;28;20483;-48
2022/04/26 15:00:41;;;;;;;14.50;13.80;;;21.80;60.00;;;;;;5077368;28;20534;-50
2022/04/26 15:03:07;;;;;;;14.27;13.77;;;21.70;60.30;;;;;;5078100;28;20448;-51
2022/04/26 15:05:35;;;;;;;13.97;13.47;;;21.60;60.60;;;;;;5079061;28;20460;-48
2022/04/26 15:10:46;;;;;;;13.90;13.40;;;21.50;61.00;;;;;;5036004;28;20477;-50
2022/04/26 15:18:41;;;;;;;15.20;14.60;;;21.40;61.60;;;;;;5075518;28;20489;-56
2022/04/26 15:21:09;;;;;;;14.67;14.17;;;21.40;61.70;;;;;;5076151;28;20609;-51
2022/04/26 15:23:37;;;;;;;15.43;14.83;;;21.40;62.00;;;;;;5074587;28;20443;-52
2022/04/26 15:26:06;;;;;;;14.50;13.97;;;21.30;61.80;;;;;;5074476;28;20541;-51
2022/04/26 15:28:33;;;;;;;14.43;13.93;;;21.30;62.10;;;;;;5075952;28;20436;-54
2022/04/26 15:31:01;;;;;;;14.93;14.33;;;21.30;62.20;;;;;;5075438;28;20497;-51
2022/04/26 15:33:28;;;;;;;14.83;14.33;;;21.30;62.00;;;;;;5076716;28;20447;-54
2022/04/26 15:35:56;;;;;;;14.17;13.73;;;21.30;62.10;;;;;;5076294;28;20460;-52
2022/04/26 15:38:23;;;;;;;14.23;13.73;;;21.40;62.10;;;;;;5075776;28;20514;-56
2022/04/26 15:40:51;;;;;;;14.13;13.63;;;21.40;62.20;;;;;;5074230;28;20497;-58
2022/04/26 15:43:18;;;;;;;14.07;13.57;;;21.50;62.20;;;;;;5073544;28;20443;-62
2022/04/26 15:45:45;;;;;;;12.80;12.40;;;21.40;62.10;;;;;;5073942;28;20471;-54
2022/04/26 15:48:13;;;;;;;13.40;12.97;;;21.40;62.20;;;;;;5072285;28;21035;-53
2022/04/26 15:50:41;;;;;;;14.23;13.73;;;21.40;62.40;;;;;;5072636;28;20452;-54
2022/04/26 15:53:08;;;;;;;13.40;12.70;;;21.30;62.50;;;;;;5072634;28;20550;-53
2022/04/26 15:55:35;;;;;;;13.50;13.00;;;21.40;62.60;;;;;;5072698;28;20460;-56
2022/04/26 15:58:03;;;;;;;13.17;12.77;;;21.40;62.60;;;;;;5071977;28;20482;-52
2022/04/26 16:00:30;;;;;;;13.07;12.67;;;21.40;62.60;;;;;;5072979;28;20470;-47
2022/04/26 16:02:57;;;;;;;14.63;14.00;;;21.40;62.80;;;;;;5073675;28;20451;-51
2022/04/26 16:05:24;;;;;;;13.10;12.60;;;21.30;62.80;;;;;;5072891;28;20499;-55
2022/04/26 16:07:51;;;;;;;13.30;12.90;;;21.30;62.90;;;;;;5071978;28;20443;-56
2022/04/26 16:21:22;;;;;;;12.87;12.47;;;21.40;62.80;;;;;;5072458;28;20788;-59
2022/04/26 16:23:49;;;;;;;13.07;12.67;;;21.30;62.80;;;;;;5072399;28;20497;-54
2022/04/26 16:26:19;;;;;;;12.70;12.30;;;21.40;63.00;;;;;;5072324;28;20454;-60
2022/04/26 16:28:48;;;;;;;12.87;12.47;;;21.40;63.00;;;;;;5072044;28;20479;-56
2022/04/26 16:31:15;;;;;;;12.03;11.63;;;21.40;63.00;;;;;;5072682;28;20439;-61
2022/04/26 16:33:42;;;;;;;11.77;11.37;;;21.40;63.00;;;;;;5072867;28;20454;-61
2022/04/26 16:36:11;;;;;;;11.50;11.00;;;21.70;62.70;;;;;;5072151;28;20494;-57
2022/04/26 16:38:38;;;;;;;10.87;10.57;;;21.90;61.70;;;;;;5072419;28;20472;-59
2022/04/26 16:41:05;;;;;;;11.67;11.27;;;22.10;61.00;;;;;;5076231;28;20538;-52
2022/04/26 16:43:33;;;;;;;11.33;10.93;;;22.30;60.30;;;;;;5073882;28;20497;-62
2022/04/26 16:46:02;;;;;;;12.87;12.37;;;22.60;59.70;;;;;;5071843;28;20482;-53
2022/04/26 16:48:29;;;;;;;12.40;12.00;;;22.90;58.80;;;;;;5071675;28;20447;-49
2022/04/26 16:50:56;;;;;;;11.77;11.33;;;23.00;58.10;;;;;;5072992;28;20439;-49
2022/04/26 16:53:23;;;;;;;12.33;11.83;;;23.10;57.60;;;;;;5072784;28;20479;-48
2022/04/26 16:55:50;;;;;;;11.90;11.50;;;23.20;57.50;;;;;;5072420;28;20550;-51
2022/04/26 16:58:18;;;;;;;12.10;11.63;;;23.20;56.40;;;;;;5072847;28;20483;-52
2022/04/26 17:00:46;;;;;;;12.00;11.50;;;23.20;56.00;;;;;;5073022;28;20454;-65